Capitol Logistics 3275




MYNN
Lynden Pindling International Airport
Nassau, BS
MBPV
Providenciales International Airport
Providenciales, TC

Activity Log

Date Flight Route Aircraft Duration
04/13/2021 CPX3275 ZQA A555 MICAS G648 PVN SF34 1h 39m
03/16/2021 CPX3275 FREDY2 EXIGE DUKKY A555 BTLER MAXIN SF34 1h 43m
04/12/2020 CPX3275 ZQA A555 MICAS G648 PVN SF34 1h 50m
10/12/2019 CPX675 ZQA A555 MICAS G648 PVN SF34 2h 27m
09/04/2019 CPX675 CUDLI HIDGY DUNNO ACMEE WRECK SOLEI TROTR BENOS EMUSO SF34 1h 54m
08/21/2019 CPX675 ZQA A555 MICAS G648 PVN SF34 1h 35m

Route Details

Aircraft Information
Primary: Saab 340AF
Backup: Not Available
Route Data
Distance: 347nm
Duration: 2h 10m
Recm'd Route: ZQA A555 MICAS G648 PVN
Origin Wx: MYNN 180300Z 06003KT 9999 FEW025 25/22 A2996
Dest. Wx:
Notes: